Lower Laposada, New Mexico
Current Conditions -  °F | °C
As of 12:53 PM on Friday 19 Dec 2014 (Local Time) from KLVS Reporting Station
Clear Clear  
Wind Chill: 40°   Ceiling: Unl
Heat Index: 44°   Visibility: 10mi
Dew Point: 13°   Wind: 7mph
Humidity: 28%   Direction: 210°SSW
Pressure: 30.07"   Gusts: NA
Location:  35.582°N, 105.558°W
Report Text: KLVS 191953Z AUTO 21006KT 10SM CLR 07/M11 A3007 RMK AO2 SLP168 T00671106
Loading
Personal Weather Stations






























Interactive Weather Map New forecast layout! Learn more

10-Day Weather Forecast

Advertisements
Track Severe Weather on mobile